sensor_id;sensor_type;location;lat;lon;timestamp;P1;durP1;ratioP1;P2;durP2;ratioP2
70667;SDS011;58242;51.250;-1.118;2023-10-09T00:00:50;3.40;;;3.08;;
70667;SDS011;58242;51.250;-1.118;2023-10-09T00:03:19;2.72;;;2.53;;
70667;SDS011;58242;51.250;-1.118;2023-10-09T00:05:49;5.85;;;3.38;;
70667;SDS011;58242;51.250;-1.118;2023-10-09T00:08:18;3.97;;;3.58;;
70667;SDS011;58242;51.250;-1.118;2023-10-09T00:10:55;5.28;;;3.22;;
70667;SDS011;58242;51.250;-1.118;2023-10-09T00:13:25;4.80;;;3.83;;
70667;SDS011;58242;51.250;-1.118;2023-10-09T00:16:04;3.53;;;3.10;;
70667;SDS011;58242;51.250;-1.118;2023-10-09T00:18:38;3.42;;;3.13;;
70667;SDS011;58242;51.250;-1.118;2023-10-09T00:21:04;2.67;;;2.40;;
70667;SDS011;58242;51.250;-1.118;2023-10-09T00:23:37;2.80;;;2.60;;
70667;SDS011;58242;51.250;-1.118;2023-10-09T00:26:03;3.15;;;2.60;;
70667;SDS011;58242;51.250;-1.118;2023-10-09T00:28:47;3.47;;;2.22;;
70667;SDS011;58242;51.250;-1.118;2023-10-09T00:31:13;3.08;;;2.67;;
70667;SDS011;58242;51.250;-1.118;2023-10-09T00:33:51;2.58;;;2.38;;
70667;SDS011;58242;51.250;-1.118;2023-10-09T00:36:17;3.17;;;2.88;;
70667;SDS011;58242;51.250;-1.118;2023-10-09T00:38:52;3.38;;;2.80;;
70667;SDS011;58242;51.250;-1.118;2023-10-09T00:41:18;2.67;;;2.47;;
70667;SDS011;58242;51.250;-1.118;2023-10-09T00:43:49;2.70;;;2.50;;
70667;SDS011;58242;51.250;-1.118;2023-10-09T00:46:19;3.22;;;2.83;;
70667;SDS011;58242;51.250;-1.118;2023-10-09T00:48:46;3.63;;;2.70;;
70667;SDS011;58242;51.250;-1.118;2023-10-09T00:51:13;2.97;;;2.67;;
70667;SDS011;58242;51.250;-1.118;2023-10-09T00:53:44;2.85;;;2.65;;
70667;SDS011;58242;51.250;-1.118;2023-10-09T00:56:15;3.97;;;2.70;;
70667;SDS011;58242;51.250;-1.118;2023-10-09T00:58:53;3.33;;;2.97;;
70667;SDS011;58242;51.250;-1.118;2023-10-09T01:01:25;3.00;;;2.70;;
70667;SDS011;58242;51.250;-1.118;2023-10-09T01:03:59;3.33;;;2.92;;
70667;SDS011;58242;51.250;-1.118;2023-10-09T01:08:58;3.78;;;2.47;;
70667;SDS011;58242;51.250;-1.118;2023-10-09T01:11:36;2.40;;;2.20;;
70667;SDS011;58242;51.250;-1.118;2023-10-09T01:14:13;2.30;;;2.10;;
70667;SDS011;58242;51.250;-1.118;2023-10-09T01:16:39;4.43;;;2.90;;
70667;SDS011;58242;51.250;-1.118;2023-10-09T01:21:48;3.05;;;2.75;;
70667;SDS011;58242;51.250;-1.118;2023-10-09T01:24:15;3.28;;;2.97;;
70667;SDS011;58242;51.250;-1.118;2023-10-09T01:26:41;3.30;;;2.97;;
70667;SDS011;58242;51.250;-1.118;2023-10-09T01:31:40;3.90;;;3.60;;
70667;SDS011;58242;51.250;-1.118;2023-10-09T01:34:11;3.75;;;3.45;;
70667;SDS011;58242;51.250;-1.118;2023-10-09T01:36:40;3.30;;;3.10;;
70667;SDS011;58242;51.250;-1.118;2023-10-09T01:39:06;3.95;;;3.55;;
70667;SDS011;58242;51.250;-1.118;2023-10-09T01:41:46;3.13;;;2.83;;
70667;SDS011;58242;51.250;-1.118;2023-10-09T01:44:12;3.75;;;3.05;;
70667;SDS011;58242;51.250;-1.118;2023-10-09T01:46:41;3.97;;;3.27;;
70667;SDS011;58242;51.250;-1.118;2023-10-09T01:49:06;3.35;;;3.05;;
70667;SDS011;58242;51.250;-1.118;2023-10-09T01:54:02;3.40;;;3.10;;
70667;SDS011;58242;51.250;-1.118;2023-10-09T01:56:28;2.70;;;2.50;;
70667;SDS011;58242;51.250;-1.118;2023-10-09T01:58:53;3.15;;;2.95;;
70667;SDS011;58242;51.250;-1.118;2023-10-09T02:01:22;4.03;;;2.80;;
70667;SDS011;58242;51.250;-1.118;2023-10-09T02:03:47;2.83;;;2.53;;
70667;SDS011;58242;51.250;-1.118;2023-10-09T02:06:16;3.45;;;3.15;;
70667;SDS011;58242;51.250;-1.118;2023-10-09T02:08:53;2.88;;;2.67;;
70667;SDS011;58242;51.250;-1.118;2023-10-09T02:11:19;2.80;;;2.50;;
70667;SDS011;58242;51.250;-1.118;2023-10-09T02:13:52;2.83;;;2.63;;
70667;SDS011;58242;51.250;-1.118;2023-10-09T02:16:26;3.03;;;2.55;;
70667;SDS011;58242;51.250;-1.118;2023-10-09T02:18:54;2.95;;;2.75;;
70667;SDS011;58242;51.250;-1.118;2023-10-09T02:21:24;2.78;;;2.58;;
70667;SDS011;58242;51.250;-1.118;2023-10-09T02:23:58;2.90;;;2.70;;
70667;SDS011;58242;51.250;-1.118;2023-10-09T02:26:28;2.60;;;2.40;;
70667;SDS011;58242;51.250;-1.118;2023-10-09T02:29:14;3.00;;;2.70;;
70667;SDS011;58242;51.250;-1.118;2023-10-09T02:31:39;3.17;;;2.88;;
70667;SDS011;58242;51.250;-1.118;2023-10-09T02:34:16;2.85;;;2.63;;
70667;SDS011;58242;51.250;-1.118;2023-10-09T02:36:42;3.15;;;2.90;;
70667;SDS011;58242;51.250;-1.118;2023-10-09T02:39:08;4.55;;;2.70;;
70667;SDS011;58242;51.250;-1.118;2023-10-09T02:41:48;3.00;;;2.70;;
70667;SDS011;58242;51.250;-1.118;2023-10-09T02:44:19;2.33;;;2.13;;
70667;SDS011;58242;51.250;-1.118;2023-10-09T02:46:49;2.67;;;2.47;;
70667;SDS011;58242;51.250;-1.118;2023-10-09T02:49:15;2.45;;;2.25;;
70667;SDS011;58242;51.250;-1.118;2023-10-09T02:51:41;2.42;;;2.33;;
70667;SDS011;58242;51.250;-1.118;2023-10-09T02:54:07;2.28;;;2.17;;
70667;SDS011;58242;51.250;-1.118;2023-10-09T02:56:50;4.93;;;2.25;;
70667;SDS011;58242;51.250;-1.118;2023-10-09T02:59:33;3.25;;;2.50;;
70667;SDS011;58242;51.250;-1.118;2023-10-09T03:01:59;3.60;;;2.70;;
70667;SDS011;58242;51.250;-1.118;2023-10-09T03:04:27;3.20;;;2.65;;
70667;SDS011;58242;51.250;-1.118;2023-10-09T03:06:55;2.83;;;2.40;;
70667;SDS011;58242;51.250;-1.118;2023-10-09T03:09:22;3.13;;;2.55;;
70667;SDS011;58242;51.250;-1.118;2023-10-09T03:11:52;2.50;;;2.30;;
70667;SDS011;58242;51.250;-1.118;2023-10-09T03:14:31;2.70;;;2.50;;
70667;SDS011;58242;51.250;-1.118;2023-10-09T03:16:57;2.65;;;2.45;;
70667;SDS011;58242;51.250;-1.118;2023-10-09T03:19:26;2.60;;;2.30;;
70667;SDS011;58242;51.250;-1.118;2023-10-09T03:21:56;2.72;;;2.42;;
70667;SDS011;58242;51.250;-1.118;2023-10-09T03:24:25;2.80;;;2.58;;
70667;SDS011;58242;51.250;-1.118;2023-10-09T03:26:52;2.90;;;2.70;;
70667;SDS011;58242;51.250;-1.118;2023-10-09T03:29:20;2.30;;;2.20;;
70667;SDS011;58242;51.250;-1.118;2023-10-09T03:31:46;2.78;;;2.55;;
70667;SDS011;58242;51.250;-1.118;2023-10-09T03:34:15;3.45;;;2.67;;
70667;SDS011;58242;51.250;-1.118;2023-10-09T03:36:41;2.67;;;2.47;;
70667;SDS011;58242;51.250;-1.118;2023-10-09T03:39:08;3.60;;;3.20;;
70667;SDS011;58242;51.250;-1.118;2023-10-09T03:41:52;2.95;;;2.75;;
70667;SDS011;58242;51.250;-1.118;2023-10-09T03:44:23;3.28;;;2.97;;
70667;SDS011;58242;51.250;-1.118;2023-10-09T03:46:49;3.20;;;2.90;;
70667;SDS011;58242;51.250;-1.118;2023-10-09T03:49:16;3.65;;;3.30;;
70667;SDS011;58242;51.250;-1.118;2023-10-09T03:51:48;3.83;;;3.03;;
70667;SDS011;58242;51.250;-1.118;2023-10-09T03:54:14;3.40;;;2.88;;
70667;SDS011;58242;51.250;-1.118;2023-10-09T03:56:40;3.60;;;2.55;;
70667;SDS011;58242;51.250;-1.118;2023-10-09T03:59:05;2.58;;;2.38;;
70667;SDS011;58242;51.250;-1.118;2023-10-09T04:01:32;2.90;;;2.70;;
70667;SDS011;58242;51.250;-1.118;2023-10-09T04:04:04;3.00;;;2.67;;
70667;SDS011;58242;51.250;-1.118;2023-10-09T04:06:32;3.75;;;2.83;;
70667;SDS011;58242;51.250;-1.118;2023-10-09T04:09:02;2.72;;;2.53;;
70667;SDS011;58242;51.250;-1.118;2023-10-09T04:11:46;2.40;;;2.22;;
70667;SDS011;58242;51.250;-1.118;2023-10-09T04:14:12;2.35;;;2.15;;
70667;SDS011;58242;51.250;-1.118;2023-10-09T04:16:57;2.58;;;2.38;;
70667;SDS011;58242;51.250;-1.118;2023-10-09T04:19:51;2.80;;;2.58;;
70667;SDS011;58242;51.250;-1.118;2023-10-09T04:22:37;3.33;;;2.70;;
70667;SDS011;58242;51.250;-1.118;2023-10-09T04:25:24;5.45;;;3.47;;
70667;SDS011;58242;51.250;-1.118;2023-10-09T04:27:54;4.20;;;3.40;;
70667;SDS011;58242;51.250;-1.118;2023-10-09T04:30:43;3.67;;;3.42;;
70667;SDS011;58242;51.250;-1.118;2023-10-09T04:33:11;3.88;;;3.47;;
70667;SDS011;58242;51.250;-1.118;2023-10-09T04:36:02;3.65;;;3.00;;
70667;SDS011;58242;51.250;-1.118;2023-10-09T04:39:01;3.60;;;3.30;;
70667;SDS011;58242;51.250;-1.118;2023-10-09T04:41:26;3.10;;;2.90;;
70667;SDS011;58242;51.250;-1.118;2023-10-09T04:44:18;3.08;;;2.85;;
70667;SDS011;58242;51.250;-1.118;2023-10-09T04:46:45;2.72;;;2.53;;
70667;SDS011;58242;51.250;-1.118;2023-10-09T04:49:30;2.95;;;2.75;;
70667;SDS011;58242;51.250;-1.118;2023-10-09T04:52:01;2.50;;;2.30;;
70667;SDS011;58242;51.250;-1.118;2023-10-09T04:54:31;3.38;;;3.08;;
70667;SDS011;58242;51.250;-1.118;2023-10-09T04:57:25;3.35;;;3.10;;
70667;SDS011;58242;51.250;-1.118;2023-10-09T04:59:50;2.97;;;2.78;;
70667;SDS011;58242;51.250;-1.118;2023-10-09T05:02:16;3.08;;;2.88;;
70667;SDS011;58242;51.250;-1.118;2023-10-09T05:04:44;3.30;;;3.00;;
70667;SDS011;58242;51.250;-1.118;2023-10-09T05:07:13;3.08;;;2.88;;
70667;SDS011;58242;51.250;-1.118;2023-10-09T05:10:10;2.78;;;2.58;;
70667;SDS011;58242;51.250;-1.118;2023-10-09T05:12:42;3.08;;;2.85;;
70667;SDS011;58242;51.250;-1.118;2023-10-09T05:17:51;3.17;;;2.90;;
70667;SDS011;58242;51.250;-1.118;2023-10-09T05:20:21;3.45;;;3.20;;
70667;SDS011;58242;51.250;-1.118;2023-10-09T05:22:52;3.60;;;3.30;;
70667;SDS011;58242;51.250;-1.118;2023-10-09T05:25:22;3.30;;;3.10;;
70667;SDS011;58242;51.250;-1.118;2023-10-09T05:28:07;3.40;;;3.10;;
70667;SDS011;58242;51.250;-1.118;2023-10-09T05:30:50;3.28;;;3.08;;
70667;SDS011;58242;51.250;-1.118;2023-10-09T05:33:27;3.63;;;3.33;;
70667;SDS011;58242;51.250;-1.118;2023-10-09T05:35:52;3.70;;;3.50;;
70667;SDS011;58242;51.250;-1.118;2023-10-09T05:38:39;3.25;;;3.05;;
70667;SDS011;58242;51.250;-1.118;2023-10-09T05:41:11;4.75;;;4.32;;
70667;SDS011;58242;51.250;-1.118;2023-10-09T05:43:58;6.40;;;4.50;;
70667;SDS011;58242;51.250;-1.118;2023-10-09T05:46:42;3.83;;;3.53;;
70667;SDS011;58242;51.250;-1.118;2023-10-09T05:49:27;4.25;;;3.85;;
70667;SDS011;58242;51.250;-1.118;2023-10-09T05:52:11;4.53;;;4.13;;
70667;SDS011;58242;51.250;-1.118;2023-10-09T05:54:56;3.88;;;3.58;;
70667;SDS011;58242;51.250;-1.118;2023-10-09T05:57:41;4.70;;;4.15;;
70667;SDS011;58242;51.250;-1.118;2023-10-09T06:00:25;5.13;;;3.88;;
70667;SDS011;58242;51.250;-1.118;2023-10-09T06:03:09;4.85;;;4.32;;
70667;SDS011;58242;51.250;-1.118;2023-10-09T06:05:55;5.70;;;4.35;;
70667;SDS011;58242;51.250;-1.118;2023-10-09T06:08:21;4.97;;;4.53;;
70667;SDS011;58242;51.250;-1.118;2023-10-09T06:11:06;4.55;;;4.10;;
70667;SDS011;58242;51.250;-1.118;2023-10-09T06:13:56;4.85;;;4.38;;
70667;SDS011;58242;51.250;-1.118;2023-10-09T06:16:28;5.03;;;4.53;;
70667;SDS011;58242;51.250;-1.118;2023-10-09T06:19:06;6.43;;;4.60;;
70667;SDS011;58242;51.250;-1.118;2023-10-09T06:22:07;3.85;;;3.55;;
70667;SDS011;58242;51.250;-1.118;2023-10-09T06:24:51;3.85;;;3.53;;
70667;SDS011;58242;51.250;-1.118;2023-10-09T06:27:20;4.40;;;4.00;;
70667;SDS011;58242;51.250;-1.118;2023-10-09T06:29:56;4.20;;;3.80;;
70667;SDS011;58242;51.250;-1.118;2023-10-09T06:32:41;4.28;;;3.88;;
70667;SDS011;58242;51.250;-1.118;2023-10-09T06:35:22;3.78;;;3.47;;
70667;SDS011;58242;51.250;-1.118;2023-10-09T06:37:55;5.03;;;4.53;;
70667;SDS011;58242;51.250;-1.118;2023-10-09T06:40:28;5.95;;;5.07;;
70667;SDS011;58242;51.250;-1.118;2023-10-09T06:43:21;6.15;;;4.95;;
70667;SDS011;58242;51.250;-1.118;2023-10-09T06:45:50;6.35;;;5.38;;
70667;SDS011;58242;51.250;-1.118;2023-10-09T06:48:22;4.82;;;4.38;;
70667;SDS011;58242;51.250;-1.118;2023-10-09T06:51:05;4.78;;;4.28;;
70667;SDS011;58242;51.250;-1.118;2023-10-09T06:53:37;5.10;;;4.53;;
70667;SDS011;58242;51.250;-1.118;2023-10-09T06:56:28;4.10;;;3.70;;
70667;SDS011;58242;51.250;-1.118;2023-10-09T06:58:57;4.70;;;4.28;;
70667;SDS011;58242;51.250;-1.118;2023-10-09T07:01:23;4.72;;;3.92;;
70667;SDS011;58242;51.250;-1.118;2023-10-09T07:06:18;6.15;;;4.07;;
70667;SDS011;58242;51.250;-1.118;2023-10-09T07:08:50;4.70;;;4.30;;
70667;SDS011;58242;51.250;-1.118;2023-10-09T07:14:06;4.70;;;4.30;;
70667;SDS011;58242;51.250;-1.118;2023-10-09T07:19:30;3.22;;;3.03;;
70667;SDS011;58242;51.250;-1.118;2023-10-09T07:21:59;3.63;;;3.33;;
70667;SDS011;58242;51.250;-1.118;2023-10-09T07:24:28;3.30;;;3.00;;
70667;SDS011;58242;51.250;-1.118;2023-10-09T07:27:08;3.33;;;3.10;;
70667;SDS011;58242;51.250;-1.118;2023-10-09T07:29:38;3.80;;;3.50;;
70667;SDS011;58242;51.250;-1.118;2023-10-09T07:32:13;4.22;;;3.72;;
70667;SDS011;58242;51.250;-1.118;2023-10-09T07:34:45;4.05;;;3.50;;
70667;SDS011;58242;51.250;-1.118;2023-10-09T07:37:26;4.13;;;3.70;;
70667;SDS011;58242;51.250;-1.118;2023-10-09T07:40:03;3.70;;;3.40;;
70667;SDS011;58242;51.250;-1.118;2023-10-09T07:42:32;3.55;;;3.28;;
70667;SDS011;58242;51.250;-1.118;2023-10-09T07:45:08;3.67;;;3.20;;
70667;SDS011;58242;51.250;-1.118;2023-10-09T07:47:43;4.18;;;3.80;;
70667;SDS011;58242;51.250;-1.118;2023-10-09T07:50:26;3.28;;;2.97;;
70667;SDS011;58242;51.250;-1.118;2023-10-09T07:53:12;3.60;;;3.28;;
70667;SDS011;58242;51.250;-1.118;2023-10-09T07:55:43;3.78;;;3.47;;
70667;SDS011;58242;51.250;-1.118;2023-10-09T07:58:14;4.25;;;3.70;;
70667;SDS011;58242;51.250;-1.118;2023-10-09T08:00:39;3.47;;;3.17;;
70667;SDS011;58242;51.250;-1.118;2023-10-09T08:03:23;3.80;;;3.40;;
70667;SDS011;58242;51.250;-1.118;2023-10-09T08:05:50;4.00;;;3.30;;
70667;SDS011;58242;51.250;-1.118;2023-10-09T08:08:17;3.80;;;3.20;;
70667;SDS011;58242;51.250;-1.118;2023-10-09T08:10:58;4.00;;;3.60;;
70667;SDS011;58242;51.250;-1.118;2023-10-09T08:13:42;4.47;;;3.90;;
70667;SDS011;58242;51.250;-1.118;2023-10-09T08:16:25;4.40;;;3.90;;
70667;SDS011;58242;51.250;-1.118;2023-10-09T08:19:01;4.32;;;3.92;;
70667;SDS011;58242;51.250;-1.118;2023-10-09T08:21:48;4.10;;;3.70;;
70667;SDS011;58242;51.250;-1.118;2023-10-09T08:24:33;5.53;;;4.60;;
70667;SDS011;58242;51.250;-1.118;2023-10-09T08:27:31;5.95;;;4.15;;
70667;SDS011;58242;51.250;-1.118;2023-10-09T08:29:57;4.05;;;3.65;;
70667;SDS011;58242;51.250;-1.118;2023-10-09T08:32:41;4.00;;;3.65;;
70667;SDS011;58242;51.250;-1.118;2023-10-09T08:35:26;3.33;;;3.03;;
70667;SDS011;58242;51.250;-1.118;2023-10-09T08:37:58;5.28;;;3.90;;
70667;SDS011;58242;51.250;-1.118;2023-10-09T08:40:42;3.90;;;3.60;;
70667;SDS011;58242;51.250;-1.118;2023-10-09T08:43:18;4.20;;;3.80;;
70667;SDS011;58242;51.250;-1.118;2023-10-09T08:45:45;3.05;;;2.85;;
70667;SDS011;58242;51.250;-1.118;2023-10-09T08:48:12;3.45;;;3.15;;
70667;SDS011;58242;51.250;-1.118;2023-10-09T08:50:41;3.03;;;2.80;;
70667;SDS011;58242;51.250;-1.118;2023-10-09T08:53:11;3.47;;;3.17;;
70667;SDS011;58242;51.250;-1.118;2023-10-09T08:55:37;3.25;;;2.95;;
70667;SDS011;58242;51.250;-1.118;2023-10-09T08:58:06;3.88;;;3.47;;
70667;SDS011;58242;51.250;-1.118;2023-10-09T09:00:55;3.38;;;3.03;;
70667;SDS011;58242;51.250;-1.118;2023-10-09T09:03:21;3.88;;;3.58;;
70667;SDS011;58242;51.250;-1.118;2023-10-09T09:05:56;3.40;;;3.10;;
70667;SDS011;58242;51.250;-1.118;2023-10-09T09:08:28;4.07;;;3.77;;
70667;SDS011;58242;51.250;-1.118;2023-10-09T09:13:45;3.70;;;3.38;;
70667;SDS011;58242;51.250;-1.118;2023-10-09T09:16:24;3.90;;;3.47;;
70667;SDS011;58242;51.250;-1.118;2023-10-09T09:19:06;3.33;;;3.05;;
70667;SDS011;58242;51.250;-1.118;2023-10-09T09:21:38;3.08;;;2.88;;
70667;SDS011;58242;51.250;-1.118;2023-10-09T09:24:11;3.58;;;3.28;;
70667;SDS011;58242;51.250;-1.118;2023-10-09T09:26:41;3.85;;;3.40;;
70667;SDS011;58242;51.250;-1.118;2023-10-09T09:29:14;3.58;;;3.13;;
70667;SDS011;58242;51.250;-1.118;2023-10-09T09:31:53;5.10;;;3.83;;
70667;SDS011;58242;51.250;-1.118;2023-10-09T09:34:19;3.67;;;3.17;;
70667;SDS011;58242;51.250;-1.118;2023-10-09T09:36:54;3.35;;;3.05;;
70667;SDS011;58242;51.250;-1.118;2023-10-09T09:39:21;4.13;;;3.83;;
70667;SDS011;58242;51.250;-1.118;2023-10-09T09:42:01;3.63;;;3.38;;
70667;SDS011;58242;51.250;-1.118;2023-10-09T09:44:32;4.60;;;3.45;;
70667;SDS011;58242;51.250;-1.118;2023-10-09T09:47:08;3.72;;;3.33;;
70667;SDS011;58242;51.250;-1.118;2023-10-09T09:49:38;3.70;;;3.40;;
70667;SDS011;58242;51.250;-1.118;2023-10-09T09:52:06;5.78;;;4.35;;
70667;SDS011;58242;51.250;-1.118;2023-10-09T09:54:38;4.28;;;3.85;;
70667;SDS011;58242;51.250;-1.118;2023-10-09T09:57:04;4.10;;;3.70;;
70667;SDS011;58242;51.250;-1.118;2023-10-09T09:59:36;3.85;;;3.55;;
70667;SDS011;58242;51.250;-1.118;2023-10-09T10:02:05;3.50;;;3.22;;
70667;SDS011;58242;51.250;-1.118;2023-10-09T10:04:33;4.10;;;3.70;;
70667;SDS011;58242;51.250;-1.118;2023-10-09T10:07:01;3.63;;;3.33;;
70667;SDS011;58242;51.250;-1.118;2023-10-09T10:09:37;3.92;;;3.63;;
70667;SDS011;58242;51.250;-1.118;2023-10-09T10:12:09;3.85;;;3.25;;
70667;SDS011;58242;51.250;-1.118;2023-10-09T10:14:52;3.13;;;2.80;;
70667;SDS011;58242;51.250;-1.118;2023-10-09T10:17:22;3.28;;;3.00;;
70667;SDS011;58242;51.250;-1.118;2023-10-09T10:20:03;4.25;;;3.85;;
70667;SDS011;58242;51.250;-1.118;2023-10-09T10:22:49;3.60;;;3.30;;
70667;SDS011;58242;51.250;-1.118;2023-10-09T10:28:25;3.45;;;3.25;;
70667;SDS011;58242;51.250;-1.118;2023-10-09T10:31:04;3.63;;;3.35;;
70667;SDS011;58242;51.250;-1.118;2023-10-09T10:36:18;3.58;;;3.28;;
70667;SDS011;58242;51.250;-1.118;2023-10-09T10:38:47;3.53;;;3.22;;
70667;SDS011;58242;51.250;-1.118;2023-10-09T10:41:30;2.63;;;2.42;;
70667;SDS011;58242;51.250;-1.118;2023-10-09T10:44:01;2.75;;;2.55;;
70667;SDS011;58242;51.250;-1.118;2023-10-09T10:46:46;3.15;;;2.95;;
70667;SDS011;58242;51.250;-1.118;2023-10-09T10:49:16;3.47;;;3.17;;
70667;SDS011;58242;51.250;-1.118;2023-10-09T10:51:43;3.38;;;3.05;;
70667;SDS011;58242;51.250;-1.118;2023-10-09T10:54:21;2.80;;;2.60;;
70667;SDS011;58242;51.250;-1.118;2023-10-09T10:56:56;3.28;;;2.97;;
70667;SDS011;58242;51.250;-1.118;2023-10-09T10:59:23;3.22;;;2.92;;
70667;SDS011;58242;51.250;-1.118;2023-10-09T11:01:50;2.40;;;2.20;;
70667;SDS011;58242;51.250;-1.118;2023-10-09T11:04:23;3.80;;;2.83;;
70667;SDS011;58242;51.250;-1.118;2023-10-09T11:06:52;2.70;;;2.50;;
70667;SDS011;58242;51.250;-1.118;2023-10-09T11:09:25;2.55;;;2.35;;
70667;SDS011;58242;51.250;-1.118;2023-10-09T11:12:03;2.20;;;2.00;;
70667;SDS011;58242;51.250;-1.118;2023-10-09T11:14:47;3.25;;;2.20;;
70667;SDS011;58242;51.250;-1.118;2023-10-09T11:17:31;2.35;;;2.20;;
70667;SDS011;58242;51.250;-1.118;2023-10-09T11:20:03;2.92;;;2.72;;
70667;SDS011;58242;51.250;-1.118;2023-10-09T11:22:57;2.55;;;2.33;;
70667;SDS011;58242;51.250;-1.118;2023-10-09T11:25:42;2.78;;;2.58;;
70667;SDS011;58242;51.250;-1.118;2023-10-09T11:28:18;2.72;;;2.47;;
70667;SDS011;58242;51.250;-1.118;2023-10-09T11:31:06;2.03;;;1.90;;
70667;SDS011;58242;51.250;-1.118;2023-10-09T11:33:48;2.60;;;2.40;;
70667;SDS011;58242;51.250;-1.118;2023-10-09T11:36:20;2.63;;;2.42;;
70667;SDS011;58242;51.250;-1.118;2023-10-09T11:38:56;2.17;;;2.00;;
70667;SDS011;58242;51.250;-1.118;2023-10-09T11:41:41;2.35;;;2.15;;
70667;SDS011;58242;51.250;-1.118;2023-10-09T11:46:32;2.30;;;2.10;;
70667;SDS011;58242;51.250;-1.118;2023-10-09T11:49:15;2.00;;;1.90;;
70667;SDS011;58242;51.250;-1.118;2023-10-09T11:52:04;2.08;;;1.98;;
70667;SDS011;58242;51.250;-1.118;2023-10-09T11:54:34;2.92;;;2.65;;
70667;SDS011;58242;51.250;-1.118;2023-10-09T11:57:00;2.30;;;2.10;;
70667;SDS011;58242;51.250;-1.118;2023-10-09T11:59:26;2.13;;;1.90;;
70667;SDS011;58242;51.250;-1.118;2023-10-09T12:01:53;1.92;;;1.73;;
70667;SDS011;58242;51.250;-1.118;2023-10-09T12:04:19;1.93;;;1.83;;
70667;SDS011;58242;51.250;-1.118;2023-10-09T12:06:45;2.03;;;1.83;;
70667;SDS011;58242;51.250;-1.118;2023-10-09T12:09:10;1.98;;;1.88;;
70667;SDS011;58242;51.250;-1.118;2023-10-09T12:14:17;1.73;;;1.60;;
70667;SDS011;58242;51.250;-1.118;2023-10-09T12:16:48;3.17;;;2.28;;
70667;SDS011;58242;51.250;-1.118;2023-10-09T12:19:15;3.33;;;2.03;;
70667;SDS011;58242;51.250;-1.118;2023-10-09T12:21:40;2.50;;;2.30;;
70667;SDS011;58242;51.250;-1.118;2023-10-09T12:24:08;2.00;;;1.90;;
70667;SDS011;58242;51.250;-1.118;2023-10-09T12:26:36;2.50;;;2.30;;
70667;SDS011;58242;51.250;-1.118;2023-10-09T12:29:04;2.10;;;1.85;;
70667;SDS011;58242;51.250;-1.118;2023-10-09T12:31:36;2.47;;;2.15;;
70667;SDS011;58242;51.250;-1.118;2023-10-09T12:34:02;2.03;;;1.92;;
70667;SDS011;58242;51.250;-1.118;2023-10-09T12:36:27;1.90;;;1.80;;
70667;SDS011;58242;51.250;-1.118;2023-10-09T12:38:53;2.00;;;1.90;;
70667;SDS011;58242;51.250;-1.118;2023-10-09T12:41:23;2.30;;;2.10;;
70667;SDS011;58242;51.250;-1.118;2023-10-09T12:43:53;2.05;;;1.95;;
70667;SDS011;58242;51.250;-1.118;2023-10-09T12:46:19;3.75;;;1.90;;
70667;SDS011;58242;51.250;-1.118;2023-10-09T12:48:48;2.03;;;1.88;;
70667;SDS011;58242;51.250;-1.118;2023-10-09T12:51:14;2.40;;;2.25;;
70667;SDS011;58242;51.250;-1.118;2023-10-09T12:53:43;2.58;;;2.30;;
70667;SDS011;58242;51.250;-1.118;2023-10-09T12:56:09;8.52;;;2.45;;
70667;SDS011;58242;51.250;-1.118;2023-10-09T12:58:37;3.05;;;2.75;;
70667;SDS011;58242;51.250;-1.118;2023-10-09T13:01:02;2.78;;;2.58;;
70667;SDS011;58242;51.250;-1.118;2023-10-09T13:03:34;3.22;;;2.33;;
70667;SDS011;58242;51.250;-1.118;2023-10-09T13:06:03;2.15;;;1.98;;
70667;SDS011;58242;51.250;-1.118;2023-10-09T13:08:32;2.30;;;2.20;;
70667;SDS011;58242;51.250;-1.118;2023-10-09T13:11:05;3.45;;;2.67;;
70667;SDS011;58242;51.250;-1.118;2023-10-09T13:13:58;2.42;;;2.17;;
70667;SDS011;58242;51.250;-1.118;2023-10-09T13:16:36;2.20;;;2.00;;
70667;SDS011;58242;51.250;-1.118;2023-10-09T13:19:02;2.30;;;2.20;;
70667;SDS011;58242;51.250;-1.118;2023-10-09T13:21:34;2.70;;;2.50;;
70667;SDS011;58242;51.250;-1.118;2023-10-09T13:24:03;2.85;;;2.25;;
70667;SDS011;58242;51.250;-1.118;2023-10-09T13:26:28;2.60;;;2.40;;
70667;SDS011;58242;51.250;-1.118;2023-10-09T13:28:57;2.75;;;2.55;;
70667;SDS011;58242;51.250;-1.118;2023-10-09T13:31:24;2.30;;;2.08;;
70667;SDS011;58242;51.250;-1.118;2023-10-09T13:33:57;2.40;;;1.95;;
70667;SDS011;58242;51.250;-1.118;2023-10-09T13:36:24;2.17;;;2.03;;
70667;SDS011;58242;51.250;-1.118;2023-10-09T13:38:59;2.55;;;2.35;;
70667;SDS011;58242;51.250;-1.118;2023-10-09T13:41:44;2.50;;;2.30;;
70667;SDS011;58242;51.250;-1.118;2023-10-09T13:44:10;2.00;;;1.80;;
70667;SDS011;58242;51.250;-1.118;2023-10-09T13:46:35;2.08;;;1.98;;
70667;SDS011;58242;51.250;-1.118;2023-10-09T13:49:06;1.95;;;1.85;;
70667;SDS011;58242;51.250;-1.118;2023-10-09T13:51:37;2.20;;;2.08;;
70667;SDS011;58242;51.250;-1.118;2023-10-09T13:54:11;2.30;;;2.10;;
70667;SDS011;58242;51.250;-1.118;2023-10-09T13:57:00;2.90;;;2.25;;
70667;SDS011;58242;51.250;-1.118;2023-10-09T13:59:29;1.95;;;1.85;;
70667;SDS011;58242;51.250;-1.118;2023-10-09T14:01:55;2.55;;;2.35;;
70667;SDS011;58242;51.250;-1.118;2023-10-09T14:04:21;3.65;;;2.10;;
70667;SDS011;58242;51.250;-1.118;2023-10-09T14:06:49;2.47;;;2.28;;
70667;SDS011;58242;51.250;-1.118;2023-10-09T14:09:26;2.05;;;1.90;;
70667;SDS011;58242;51.250;-1.118;2023-10-09T14:11:54;2.42;;;2.13;;
70667;SDS011;58242;51.250;-1.118;2023-10-09T14:14:31;4.18;;;2.45;;
70667;SDS011;58242;51.250;-1.118;2023-10-09T14:16:58;2.70;;;2.50;;
70667;SDS011;58242;51.250;-1.118;2023-10-09T14:19:23;2.45;;;2.25;;
70667;SDS011;58242;51.250;-1.118;2023-10-09T14:21:48;2.00;;;1.90;;
70667;SDS011;58242;51.250;-1.118;2023-10-09T14:24:14;2.13;;;1.95;;
70667;SDS011;58242;51.250;-1.118;2023-10-09T14:26:40;3.17;;;2.53;;
70667;SDS011;58242;51.250;-1.118;2023-10-09T14:29:07;2.20;;;2.00;;
70667;SDS011;58242;51.250;-1.118;2023-10-09T14:31:32;2.80;;;2.60;;
70667;SDS011;58242;51.250;-1.118;2023-10-09T14:34:04;3.22;;;2.20;;
70667;SDS011;58242;51.250;-1.118;2023-10-09T14:36:29;1.95;;;1.85;;
70667;SDS011;58242;51.250;-1.118;2023-10-09T14:38:58;2.97;;;2.78;;
70667;SDS011;58242;51.250;-1.118;2023-10-09T14:41:25;2.40;;;2.20;;
70667;SDS011;58242;51.250;-1.118;2023-10-09T14:43:52;2.10;;;1.90;;
70667;SDS011;58242;51.250;-1.118;2023-10-09T14:46:18;2.10;;;2.00;;
70667;SDS011;58242;51.250;-1.118;2023-10-09T14:48:51;2.50;;;2.30;;
70667;SDS011;58242;51.250;-1.118;2023-10-09T14:51:19;2.80;;;2.60;;
70667;SDS011;58242;51.250;-1.118;2023-10-09T14:53:52;2.78;;;2.10;;
70667;SDS011;58242;51.250;-1.118;2023-10-09T14:56:24;2.60;;;2.40;;
70667;SDS011;58242;51.250;-1.118;2023-10-09T14:58:54;3.70;;;2.72;;
70667;SDS011;58242;51.250;-1.118;2023-10-09T15:01:21;3.10;;;2.90;;
70667;SDS011;58242;51.250;-1.118;2023-10-09T15:03:49;2.88;;;2.67;;
70667;SDS011;58242;51.250;-1.118;2023-10-09T15:06:18;2.92;;;2.72;;
70667;SDS011;58242;51.250;-1.118;2023-10-09T15:08:43;3.22;;;3.00;;
70667;SDS011;58242;51.250;-1.118;2023-10-09T15:11:09;2.90;;;2.70;;
70667;SDS011;58242;51.250;-1.118;2023-10-09T15:13:34;2.80;;;2.60;;
70667;SDS011;58242;51.250;-1.118;2023-10-09T15:16:00;2.58;;;2.38;;
70667;SDS011;58242;51.250;-1.118;2023-10-09T15:20:53;3.00;;;2.65;;
70667;SDS011;58242;51.250;-1.118;2023-10-09T15:23:19;3.25;;;2.70;;
70667;SDS011;58242;51.250;-1.118;2023-10-09T15:25:47;2.53;;;2.33;;
70667;SDS011;58242;51.250;-1.118;2023-10-09T15:28:16;2.72;;;2.53;;
70667;SDS011;58242;51.250;-1.118;2023-10-09T15:30:42;2.90;;;2.70;;
70667;SDS011;58242;51.250;-1.118;2023-10-09T15:33:07;2.70;;;2.50;;
70667;SDS011;58242;51.250;-1.118;2023-10-09T15:35:35;3.20;;;2.90;;
70667;SDS011;58242;51.250;-1.118;2023-10-09T15:38:01;2.92;;;2.72;;
70667;SDS011;58242;51.250;-1.118;2023-10-09T15:42:58;2.95;;;2.75;;
70667;SDS011;58242;51.250;-1.118;2023-10-09T15:45:24;2.80;;;2.60;;